createdAt,value
2023-01-19T00:03:15.932Z,85.65
2023-01-19T00:08:18.753Z,86.17
2023-01-19T00:13:19.852Z,85.61
2023-01-19T00:18:20.529Z,86.07
2023-01-19T00:23:22.736Z,86.33
2023-01-19T00:28:23.368Z,86.80
2023-01-19T00:33:24.322Z,86.70
2023-01-19T00:38:26.427Z,87.45
2023-01-19T00:43:28.211Z,87.57
2023-01-19T00:48:29.510Z,87.59
2023-01-19T00:53:32.600Z,87.51
2023-01-19T00:58:33.520Z,87.93
2023-01-19T01:03:34.224Z,87.80
2023-01-19T01:08:36.308Z,87.55
2023-01-19T01:13:36.999Z,87.79
2023-01-19T01:18:37.666Z,87.18
2023-01-19T01:23:39.852Z,87.26
2023-01-19T01:28:40.506Z,87.17
2023-01-19T01:33:42.030Z,86.61
2023-01-19T01:38:44.148Z,86.69
2023-01-19T01:43:47.270Z,86.57
2023-01-19T01:48:53.623Z,86.51
2023-01-19T01:54:06.806Z,86.22
2023-01-19T01:59:10.380Z,86.62
2023-01-19T02:04:11.072Z,86.54
2023-01-19T02:09:30.661Z,86.77
2023-01-19T02:14:31.335Z,86.23
2023-01-19T02:19:41.789Z,86.52
2023-01-19T02:24:44.258Z,86.62
2023-01-19T02:29:45.004Z,86.41
2023-01-19T02:34:45.791Z,86.37
2023-01-19T02:39:52.618Z,86.47
2023-01-19T02:44:56.582Z,86.14
2023-01-19T02:49:58.095Z,86.46
2023-01-19T02:55:15.329Z,86.39
2023-01-19T03:00:25.664Z,86.63
2023-01-19T03:05:52.542Z,86.67
2023-01-19T03:11:01.720Z,86.93
2023-01-19T03:16:07.989Z,87.17
2023-01-19T03:21:10.381Z,87.02
2023-01-19T03:26:17.086Z,86.34
2023-01-19T03:31:22.124Z,86.25
2023-01-19T03:36:28.609Z,86.80
2023-01-19T03:41:32.565Z,86.71
2023-01-19T03:46:34.879Z,86.88
2023-01-19T03:51:38.985Z,86.91
2023-01-19T03:56:40.963Z,87.26
2023-01-19T04:01:41.705Z,87.23
2023-01-19T04:06:42.547Z,87.43
2023-01-19T04:11:44.533Z,87.53
2023-01-19T04:16:45.199Z,87.53
2023-01-19T04:21:45.869Z,87.50
2023-01-19T04:26:47.940Z,87.36
2023-01-19T04:31:48.586Z,87.37
2023-01-19T04:36:51.095Z,87.17
2023-01-19T04:41:53.089Z,87.31
2023-01-19T04:46:54.064Z,87.01
2023-01-19T04:51:54.829Z,87.36
2023-01-19T04:56:57.185Z,87.07
2023-01-19T05:01:57.859Z,87.04
2023-01-19T05:06:59.187Z,87.22
2023-01-19T05:12:01.216Z,87.14
2023-01-19T05:17:03.264Z,89.77
2023-01-19T05:22:04.882Z,89.31
2023-01-19T05:27:06.876Z,87.71
2023-01-19T05:32:07.586Z,86.92
2023-01-19T05:37:08.579Z,86.63
2023-01-19T05:42:10.581Z,85.87
2023-01-19T05:47:11.816Z,85.65
2023-01-19T05:52:12.542Z,85.99
2023-01-19T05:57:14.797Z,85.55
2023-01-19T06:02:15.514Z,85.97
2023-01-19T06:07:16.166Z,86.14
2023-01-19T06:12:18.257Z,86.43
2023-01-19T06:17:19.044Z,85.91
2023-01-19T06:22:19.748Z,85.76
2023-01-19T06:27:21.903Z,85.10
2023-01-19T06:32:22.644Z,84.63
2023-01-19T06:37:25.138Z,84.25
2023-01-19T06:42:27.211Z,83.97
2023-01-19T06:47:27.974Z,83.34
2023-01-19T06:52:28.775Z,83.19
2023-01-19T06:57:30.756Z,83.03
2023-01-19T07:02:31.624Z,83.27
2023-01-19T07:07:32.522Z,83.02
2023-01-19T07:12:34.671Z,82.91
2023-01-19T07:17:35.883Z,81.96
2023-01-19T07:22:36.542Z,81.39
2023-01-19T07:27:38.532Z,80.30
2023-01-19T07:32:39.296Z,80.43
2023-01-19T07:37:39.980Z,80.07
2023-01-19T07:42:48.581Z,80.17
2023-01-19T07:47:51.136Z,80.03
2023-01-19T07:52:53.529Z,79.64
2023-01-19T07:57:55.558Z,79.37
2023-01-19T08:03:00.844Z,79.32
2023-01-19T08:08:01.907Z,78.97
2023-01-19T08:13:04.103Z,79.70
2023-01-19T08:18:06.224Z,78.45
2023-01-19T08:23:07.126Z,78.33
2023-01-19T08:28:10.499Z,78.29
2023-01-19T08:33:12.001Z,78.30
2023-01-19T08:38:12.815Z,77.63
2023-01-19T08:43:17.538Z,77.88
2023-01-19T08:48:20.100Z,77.20
2023-01-19T08:53:23.701Z,78.02
2023-01-19T08:58:25.869Z,77.46
2023-01-19T09:03:26.640Z,76.63
2023-01-19T09:08:27.485Z,76.60
2023-01-19T09:13:29.537Z,76.22
2023-01-19T09:18:30.555Z,76.07
2023-01-19T09:23:31.590Z,76.85
2023-01-19T09:28:34.456Z,75.85
2023-01-19T09:33:35.802Z,75.95
2023-01-19T09:38:36.532Z,75.69
2023-01-19T09:43:42.689Z,74.79
2023-01-19T09:48:49.094Z,74.78
2023-01-19T09:53:56.623Z,74.85
2023-01-19T09:59:00.114Z,74.89
2023-01-19T10:04:18.514Z,73.81
2023-01-19T10:09:24.762Z,72.54
2023-01-19T10:14:35.207Z,73.41
2023-01-19T10:19:39.118Z,73.18
2023-01-19T10:24:42.677Z,74.53
2023-01-19T10:29:46.261Z,72.52
2023-01-19T10:34:47.370Z,72.97
2023-01-19T10:39:53.905Z,73.02
2023-01-19T10:44:56.113Z,73.05
2023-01-19T10:49:57.016Z,72.58
2023-01-19T10:54:59.320Z,72.07
2023-01-19T11:00:01.334Z,71.78
2023-01-19T11:05:22.035Z,71.59
2023-01-19T11:10:25.019Z,71.29
2023-01-19T11:15:32.896Z,70.56
2023-01-19T11:20:49.734Z,70.44
2023-01-19T11:25:52.739Z,70.80
2023-01-19T11:31:00.288Z,70.10
2023-01-19T11:36:07.266Z,72.16
2023-01-19T11:41:17.866Z,70.99
2023-01-19T11:46:20.664Z,70.24
2023-01-19T11:51:23.160Z,69.82
2023-01-19T11:56:28.230Z,69.76
2023-01-19T12:01:34.169Z,70.32
2023-01-19T12:06:38.757Z,70.38
2023-01-19T12:11:44.704Z,70.26
2023-01-19T12:16:48.727Z,70.64
2023-01-19T12:21:49.866Z,69.55
2023-01-19T12:26:55.366Z,68.91
2023-01-19T12:32:19.807Z,67.79
2023-01-19T12:37:37.744Z,67.47
2023-01-19T12:42:45.500Z,67.11
2023-01-19T12:47:53.396Z,66.62
2023-01-19T12:52:58.417Z,65.24
2023-01-19T12:58:02.731Z,64.99
2023-01-19T13:03:28.650Z,63.02
2023-01-19T13:08:45.857Z,62.17
2023-01-19T13:14:30.595Z,61.34
2023-01-19T13:19:44.940Z,61.73
2023-01-19T13:25:07.910Z,61.45
2023-01-19T13:30:13.641Z,60.22
2023-01-19T13:35:19.003Z,60.62
2023-01-19T13:40:23.625Z,58.79
2023-01-19T13:45:34.227Z,57.49
2023-01-19T13:50:38.660Z,59.26
2023-01-19T13:55:39.431Z,58.16
2023-01-19T14:00:41.578Z,58.51
2023-01-19T14:05:45.324Z,58.89
2023-01-19T14:10:48.845Z,58.71
2023-01-19T14:15:51.895Z,60.04
2023-01-19T14:20:55.960Z,60.57
2023-01-19T14:25:57.570Z,60.30
2023-01-19T14:31:00.146Z,60.88
2023-01-19T14:36:12.194Z,60.42
2023-01-19T14:41:13.499Z,60.60
2023-01-19T14:46:18.486Z,62.03
2023-01-19T14:51:24.008Z,62.16
2023-01-19T14:56:26.526Z,63.44
2023-01-19T15:01:29.390Z,64.36
2023-01-19T15:06:32.950Z,65.98
2023-01-19T15:11:35.536Z,66.01
2023-01-19T15:16:37.508Z,64.04
2023-01-19T15:21:42.030Z,64.94
2023-01-19T15:26:43.814Z,65.68
2023-01-19T15:31:44.783Z,65.71
2023-01-19T15:36:46.880Z,66.63
2023-01-19T15:41:47.602Z,67.19
2023-01-19T15:46:48.275Z,68.51
2023-01-19T15:51:50.327Z,67.71
2023-01-19T15:56:52.675Z,70.22
2023-01-19T16:01:53.466Z,68.74
2023-01-19T16:06:55.656Z,67.73
2023-01-19T16:11:57.642Z,67.27
2023-01-19T16:16:59.939Z,67.09
2023-01-19T16:22:01.982Z,66.59
2023-01-19T16:27:03.983Z,67.15
2023-01-19T16:32:05.209Z,66.84
2023-01-19T16:37:07.271Z,66.40
2023-01-19T16:42:07.965Z,67.42
2023-01-19T16:47:08.773Z,67.35
2023-01-19T16:52:10.817Z,67.03
2023-01-19T16:57:12.996Z,67.14
2023-01-19T17:02:13.768Z,66.43
2023-01-19T17:07:18.183Z,65.60
2023-01-19T17:12:19.639Z,65.62
2023-01-19T17:17:20.339Z,65.24
2023-01-19T17:22:22.413Z,65.59
2023-01-19T17:27:23.137Z,65.43
2023-01-19T17:32:23.795Z,64.84
2023-01-19T17:37:25.976Z,64.94
2023-01-19T17:42:26.757Z,64.15
2023-01-19T17:47:27.567Z,65.09
2023-01-19T17:52:29.909Z,65.21
2023-01-19T17:57:30.728Z,66.88
2023-01-19T18:02:31.511Z,68.95
2023-01-19T18:07:33.588Z,64.62
2023-01-19T18:12:34.794Z,64.91
2023-01-19T18:17:36.108Z,64.99
2023-01-19T18:22:38.203Z,66.03
2023-01-19T18:27:38.873Z,65.91
2023-01-19T18:32:39.728Z,66.23
2023-01-19T18:37:41.797Z,66.17
2023-01-19T18:42:43.326Z,67.16
2023-01-19T18:47:44.097Z,67.92
2023-01-19T18:52:47.208Z,68.08
2023-01-19T18:57:47.977Z,68.61
2023-01-19T19:02:48.674Z,69.13
2023-01-19T19:07:58.500Z,69.53
2023-01-19T19:12:59.259Z,69.38
2023-01-19T19:18:00.183Z,70.14
2023-01-19T19:23:02.249Z,69.89
2023-01-19T19:28:03.026Z,70.12
2023-01-19T19:33:04.023Z,69.74
2023-01-19T19:38:06.322Z,69.85
2023-01-19T19:43:07.041Z,70.61
2023-01-19T19:48:07.753Z,70.37
2023-01-19T19:53:09.779Z,69.81
2023-01-19T19:58:10.444Z,69.87
2023-01-19T20:03:13.512Z,69.94
2023-01-19T20:08:15.676Z,70.17
2023-01-19T20:13:19.227Z,70.20
2023-01-19T20:18:19.907Z,69.80
2023-01-19T20:23:21.939Z,69.77
2023-01-19T20:28:22.643Z,69.22
2023-01-19T20:33:23.326Z,69.03
2023-01-19T20:38:25.332Z,69.72
2023-01-19T20:43:26.111Z,69.15
2023-01-19T20:48:27.093Z,69.24
2023-01-19T20:53:30.395Z,69.37
2023-01-19T20:58:31.649Z,69.43
2023-01-19T21:03:34.783Z,69.63
2023-01-19T21:08:37.211Z,70.05
2023-01-19T21:13:38.397Z,70.14
2023-01-19T21:18:39.112Z,69.53
2023-01-19T21:23:41.211Z,70.27
2023-01-19T21:28:42.420Z,70.27
2023-01-19T21:33:44.147Z,70.49
2023-01-19T21:38:46.333Z,71.22
2023-01-19T21:43:47.209Z,70.90
2023-01-19T21:48:48.122Z,71.07
2023-01-19T21:53:52.388Z,71.43
2023-01-19T21:58:53.193Z,71.31
2023-01-19T22:03:55.539Z,71.85
2023-01-19T22:08:58.446Z,71.45
2023-01-19T22:14:00.505Z,71.23
2023-01-19T22:19:02.498Z,72.10
2023-01-19T22:24:06.104Z,72.28
2023-01-19T22:29:11.046Z,72.99
2023-01-19T22:34:11.846Z,72.84
2023-01-19T22:39:14.051Z,72.82
2023-01-19T22:44:18.119Z,72.92
2023-01-19T22:49:19.482Z,72.66
2023-01-19T22:54:22.981Z,73.11
2023-01-19T22:59:23.659Z,73.58
2023-01-19T23:04:24.341Z,73.18
2023-01-19T23:09:26.368Z,73.08
2023-01-19T23:14:27.067Z,73.19
2023-01-19T23:19:27.867Z,73.12
2023-01-19T23:24:30.496Z,73.33
2023-01-19T23:29:31.194Z,74.03
2023-01-19T23:34:31.876Z,74.11
2023-01-19T23:39:33.914Z,74.33
2023-01-19T23:44:35.754Z,74.02
2023-01-19T23:49:36.410Z,73.26
2023-01-19T23:54:38.585Z,74.40
2023-01-19T23:59:39.247Z,73.93
